sensor_id;sensor_type;location;lat;lon;timestamp;temperature;humidity
24382;DHT22;12502;50.678;7.172;2023-07-02T00:00:28;15.70;99.90
24382;DHT22;12502;50.678;7.172;2023-07-02T00:05:30;15.50;99.90
24382;DHT22;12502;50.678;7.172;2023-07-02T00:10:31;15.60;99.90
24382;DHT22;12502;50.678;7.172;2023-07-02T00:15:34;15.60;99.90
24382;DHT22;12502;50.678;7.172;2023-07-02T00:20:35;15.50;99.90
24382;DHT22;12502;50.678;7.172;2023-07-02T00:25:39;15.50;99.90
24382;DHT22;12502;50.678;7.172;2023-07-02T00:30:41;15.50;99.90
24382;DHT22;12502;50.678;7.172;2023-07-02T00:35:42;15.60;99.90
24382;DHT22;12502;50.678;7.172;2023-07-02T00:40:44;15.50;99.90
24382;DHT22;12502;50.678;7.172;2023-07-02T00:45:46;15.50;99.90
24382;DHT22;12502;50.678;7.172;2023-07-02T00:50:48;15.40;99.90
24382;DHT22;12502;50.678;7.172;2023-07-02T00:55:50;15.40;99.90
24382;DHT22;12502;50.678;7.172;2023-07-02T01:00:51;15.30;99.90
24382;DHT22;12502;50.678;7.172;2023-07-02T01:05:54;15.30;99.90
24382;DHT22;12502;50.678;7.172;2023-07-02T01:10:56;15.20;99.90
24382;DHT22;12502;50.678;7.172;2023-07-02T01:15:58;15.20;99.90
24382;DHT22;12502;50.678;7.172;2023-07-02T01:21:00;15.10;99.90
24382;DHT22;12502;50.678;7.172;2023-07-02T01:26:03;15.00;99.90
24382;DHT22;12502;50.678;7.172;2023-07-02T01:31:04;14.90;99.90
24382;DHT22;12502;50.678;7.172;2023-07-02T01:36:09;15.00;99.90
24382;DHT22;12502;50.678;7.172;2023-07-02T01:41:10;14.90;99.90
24382;DHT22;12502;50.678;7.172;2023-07-02T01:46:12;14.80;99.90
24382;DHT22;12502;50.678;7.172;2023-07-02T01:51:14;14.80;99.90
24382;DHT22;12502;50.678;7.172;2023-07-02T01:56:16;14.80;99.90
24382;DHT22;12502;50.678;7.172;2023-07-02T02:01:17;14.70;99.90
24382;DHT22;12502;50.678;7.172;2023-07-02T02:06:19;14.70;99.90
24382;DHT22;12502;50.678;7.172;2023-07-02T02:11:20;14.90;99.90
24382;DHT22;12502;50.678;7.172;2023-07-02T02:16:22;14.70;99.90
24382;DHT22;12502;50.678;7.172;2023-07-02T02:21:24;14.80;99.90
24382;DHT22;12502;50.678;7.172;2023-07-02T02:26:25;14.90;99.90
24382;DHT22;12502;50.678;7.172;2023-07-02T02:31:27;14.90;99.90
24382;DHT22;12502;50.678;7.172;2023-07-02T02:36:29;14.90;99.90
24382;DHT22;12502;50.678;7.172;2023-07-02T02:41:31;14.90;99.90
24382;DHT22;12502;50.678;7.172;2023-07-02T02:46:32;14.90;99.90
24382;DHT22;12502;50.678;7.172;2023-07-02T02:51:34;14.80;99.90
24382;DHT22;12502;50.678;7.172;2023-07-02T02:56:36;14.80;99.90
24382;DHT22;12502;50.678;7.172;2023-07-02T03:01:37;14.80;99.90
24382;DHT22;12502;50.678;7.172;2023-07-02T03:06:40;14.70;99.90
24382;DHT22;12502;50.678;7.172;2023-07-02T03:11:41;14.60;99.90
24382;DHT22;12502;50.678;7.172;2023-07-02T03:16:43;14.60;99.90
24382;DHT22;12502;50.678;7.172;2023-07-02T03:21:47;14.60;99.90
24382;DHT22;12502;50.678;7.172;2023-07-02T03:26:49;14.60;99.90
24382;DHT22;12502;50.678;7.172;2023-07-02T03:31:51;14.50;99.90
24382;DHT22;12502;50.678;7.172;2023-07-02T03:36:52;14.50;99.90
24382;DHT22;12502;50.678;7.172;2023-07-02T03:41:54;14.50;99.90
24382;DHT22;12502;50.678;7.172;2023-07-02T03:46:56;14.50;99.90
24382;DHT22;12502;50.678;7.172;2023-07-02T03:51:57;14.50;99.90
24382;DHT22;12502;50.678;7.172;2023-07-02T03:56:59;14.50;99.90
24382;DHT22;12502;50.678;7.172;2023-07-02T04:02:01;14.50;99.90
24382;DHT22;12502;50.678;7.172;2023-07-02T04:07:03;14.50;99.90
24382;DHT22;12502;50.678;7.172;2023-07-02T04:12:04;14.50;99.90
24382;DHT22;12502;50.678;7.172;2023-07-02T04:17:06;14.50;99.90
24382;DHT22;12502;50.678;7.172;2023-07-02T04:22:08;14.60;99.90
24382;DHT22;12502;50.678;7.172;2023-07-02T04:27:10;14.60;99.90
24382;DHT22;12502;50.678;7.172;2023-07-02T04:32:32;14.60;99.90
24382;DHT22;12502;50.678;7.172;2023-07-02T04:37:34;14.70;99.90
24382;DHT22;12502;50.678;7.172;2023-07-02T04:42:36;14.80;99.90
24382;DHT22;12502;50.678;7.172;2023-07-02T04:47:39;14.80;99.90
24382;DHT22;12502;50.678;7.172;2023-07-02T04:52:40;14.90;99.90
24382;DHT22;12502;50.678;7.172;2023-07-02T04:57:43;14.90;99.90
24382;DHT22;12502;50.678;7.172;2023-07-02T05:02:45;15.00;99.90
24382;DHT22;12502;50.678;7.172;2023-07-02T05:07:47;14.90;99.90
24382;DHT22;12502;50.678;7.172;2023-07-02T05:12:49;14.90;99.90
24382;DHT22;12502;50.678;7.172;2023-07-02T05:17:51;15.00;99.90
24382;DHT22;12502;50.678;7.172;2023-07-02T05:22:52;15.00;99.90
24382;DHT22;12502;50.678;7.172;2023-07-02T05:27:54;15.10;99.90
24382;DHT22;12502;50.678;7.172;2023-07-02T05:32:56;15.20;99.90
24382;DHT22;12502;50.678;7.172;2023-07-02T05:37:57;15.20;99.90
24382;DHT22;12502;50.678;7.172;2023-07-02T05:42:59;15.20;99.90
24382;DHT22;12502;50.678;7.172;2023-07-02T05:48:01;15.30;99.90
24382;DHT22;12502;50.678;7.172;2023-07-02T05:53:03;15.30;99.90
24382;DHT22;12502;50.678;7.172;2023-07-02T05:58:04;15.50;99.90
24382;DHT22;12502;50.678;7.172;2023-07-02T06:03:06;15.50;99.90
24382;DHT22;12502;50.678;7.172;2023-07-02T06:08:08;15.60;99.90
24382;DHT22;12502;50.678;7.172;2023-07-02T06:13:09;15.60;99.90
24382;DHT22;12502;50.678;7.172;2023-07-02T06:18:11;15.70;99.90
24382;DHT22;12502;50.678;7.172;2023-07-02T06:23:13;15.90;99.90
24382;DHT22;12502;50.678;7.172;2023-07-02T06:28:14;16.00;99.90
24382;DHT22;12502;50.678;7.172;2023-07-02T06:33:16;16.10;99.90
24382;DHT22;12502;50.678;7.172;2023-07-02T06:38:18;16.20;99.90
24382;DHT22;12502;50.678;7.172;2023-07-02T06:43:19;16.30;99.90
24382;DHT22;12502;50.678;7.172;2023-07-02T06:48:21;16.40;99.90
24382;DHT22;12502;50.678;7.172;2023-07-02T06:53:23;16.70;99.90
24382;DHT22;12502;50.678;7.172;2023-07-02T06:58:24;16.90;99.90
24382;DHT22;12502;50.678;7.172;2023-07-02T07:03:26;16.90;99.90
24382;DHT22;12502;50.678;7.172;2023-07-02T07:08:28;17.00;99.90
24382;DHT22;12502;50.678;7.172;2023-07-02T07:13:30;17.00;99.90
24382;DHT22;12502;50.678;7.172;2023-07-02T07:18:31;17.10;99.90
24382;DHT22;12502;50.678;7.172;2023-07-02T07:23:34;17.30;99.90
24382;DHT22;12502;50.678;7.172;2023-07-02T07:28:35;17.40;99.90
24382;DHT22;12502;50.678;7.172;2023-07-02T07:33:37;17.40;99.90
24382;DHT22;12502;50.678;7.172;2023-07-02T07:38:38;17.50;99.90
24382;DHT22;12502;50.678;7.172;2023-07-02T07:43:40;17.50;99.90
24382;DHT22;12502;50.678;7.172;2023-07-02T07:48:42;17.60;99.90
24382;DHT22;12502;50.678;7.172;2023-07-02T07:53:43;17.50;99.90
24382;DHT22;12502;50.678;7.172;2023-07-02T07:58:45;17.60;99.90
24382;DHT22;12502;50.678;7.172;2023-07-02T08:03:47;17.60;99.90
24382;DHT22;12502;50.678;7.172;2023-07-02T08:08:48;17.60;99.90
24382;DHT22;12502;50.678;7.172;2023-07-02T08:13:50;17.60;99.90
24382;DHT22;12502;50.678;7.172;2023-07-02T08:18:55;17.80;99.90
24382;DHT22;12502;50.678;7.172;2023-07-02T08:23:57;18.00;99.90
24382;DHT22;12502;50.678;7.172;2023-07-02T08:28:59;18.10;99.90
24382;DHT22;12502;50.678;7.172;2023-07-02T08:34:01;18.30;99.90
24382;DHT22;12502;50.678;7.172;2023-07-02T08:39:02;18.40;99.90
24382;DHT22;12502;50.678;7.172;2023-07-02T08:44:05;18.50;99.90
24382;DHT22;12502;50.678;7.172;2023-07-02T08:49:09;18.80;99.90
24382;DHT22;12502;50.678;7.172;2023-07-02T08:54:11;18.60;99.90
24382;DHT22;12502;50.678;7.172;2023-07-02T08:59:13;18.60;99.90
24382;DHT22;12502;50.678;7.172;2023-07-02T09:04:15;18.70;99.90
24382;DHT22;12502;50.678;7.172;2023-07-02T09:09:17;18.70;99.90
24382;DHT22;12502;50.678;7.172;2023-07-02T09:14:28;18.50;99.90
24382;DHT22;12502;50.678;7.172;2023-07-02T09:19:30;18.50;99.90
24382;DHT22;12502;50.678;7.172;2023-07-02T09:24:32;18.90;99.90
24382;DHT22;12502;50.678;7.172;2023-07-02T09:29:34;18.90;99.90
24382;DHT22;12502;50.678;7.172;2023-07-02T09:34:36;18.90;99.90
24382;DHT22;12502;50.678;7.172;2023-07-02T09:39:38;18.90;99.90
24382;DHT22;12502;50.678;7.172;2023-07-02T09:44:41;19.00;99.90
24382;DHT22;12502;50.678;7.172;2023-07-02T09:49:54;19.10;99.90
24382;DHT22;12502;50.678;7.172;2023-07-02T09:54:56;19.10;99.90
24382;DHT22;12502;50.678;7.172;2023-07-02T09:59:59;18.90;99.90
24382;DHT22;12502;50.678;7.172;2023-07-02T10:05:01;18.60;99.90
24382;DHT22;12502;50.678;7.172;2023-07-02T10:10:03;18.60;99.90
24382;DHT22;12502;50.678;7.172;2023-07-02T10:15:05;18.90;99.90
24382;DHT22;12502;50.678;7.172;2023-07-02T10:20:07;18.90;99.90
24382;DHT22;12502;50.678;7.172;2023-07-02T10:25:28;18.90;99.90
24382;DHT22;12502;50.678;7.172;2023-07-02T10:30:34;19.20;99.90
24382;DHT22;12502;50.678;7.172;2023-07-02T10:35:36;19.40;99.90
24382;DHT22;12502;50.678;7.172;2023-07-02T10:40:38;19.10;99.90
24382;DHT22;12502;50.678;7.172;2023-07-02T10:45:39;19.10;99.90
24382;DHT22;12502;50.678;7.172;2023-07-02T10:50:41;19.20;99.90
24382;DHT22;12502;50.678;7.172;2023-07-02T10:55:43;19.50;99.90
24382;DHT22;12502;50.678;7.172;2023-07-02T11:00:49;19.80;99.90
24382;DHT22;12502;50.678;7.172;2023-07-02T11:05:51;19.70;99.90
24382;DHT22;12502;50.678;7.172;2023-07-02T11:11:07;19.60;99.90
24382;DHT22;12502;50.678;7.172;2023-07-02T11:16:16;19.80;99.90
24382;DHT22;12502;50.678;7.172;2023-07-02T11:21:18;20.30;99.90
24382;DHT22;12502;50.678;7.172;2023-07-02T11:26:20;20.30;99.90
24382;DHT22;12502;50.678;7.172;2023-07-02T11:31:25;19.90;99.90
24382;DHT22;12502;50.678;7.172;2023-07-02T11:36:28;19.80;99.90
24382;DHT22;12502;50.678;7.172;2023-07-02T11:42:03;19.90;99.90
24382;DHT22;12502;50.678;7.172;2023-07-02T11:46:59;20.00;99.90
24382;DHT22;12502;50.678;7.172;2023-07-02T11:52:04;20.80;99.90
24382;DHT22;12502;50.678;7.172;2023-07-02T11:57:07;20.80;99.90
24382;DHT22;12502;50.678;7.172;2023-07-02T12:02:13;20.80;99.90
24382;DHT22;12502;50.678;7.172;2023-07-02T12:07:17;20.80;99.90
24382;DHT22;12502;50.678;7.172;2023-07-02T12:12:36;20.80;99.90
24382;DHT22;12502;50.678;7.172;2023-07-02T12:17:52;20.90;99.90
24382;DHT22;12502;50.678;7.172;2023-07-02T12:22:57;21.10;99.90
24382;DHT22;12502;50.678;7.172;2023-07-02T12:28:10;21.20;99.90
24382;DHT22;12502;50.678;7.172;2023-07-02T12:33:26;21.00;99.90
24382;DHT22;12502;50.678;7.172;2023-07-02T12:38:28;20.60;99.90
24382;DHT22;12502;50.678;7.172;2023-07-02T12:43:29;20.50;99.90
24382;DHT22;12502;50.678;7.172;2023-07-02T12:48:31;20.70;99.90
24382;DHT22;12502;50.678;7.172;2023-07-02T12:53:32;20.80;99.90
24382;DHT22;12502;50.678;7.172;2023-07-02T12:58:34;20.90;99.90
24382;DHT22;12502;50.678;7.172;2023-07-02T13:03:36;21.30;99.90
24382;DHT22;12502;50.678;7.172;2023-07-02T13:08:37;21.10;99.90
24382;DHT22;12502;50.678;7.172;2023-07-02T13:13:41;21.50;99.90
24382;DHT22;12502;50.678;7.172;2023-07-02T13:18:43;21.40;99.90
24382;DHT22;12502;50.678;7.172;2023-07-02T13:23:45;21.20;99.90
24382;DHT22;12502;50.678;7.172;2023-07-02T13:28:46;21.10;99.90
24382;DHT22;12502;50.678;7.172;2023-07-02T13:33:49;21.20;99.90
24382;DHT22;12502;50.678;7.172;2023-07-02T13:38:51;21.30;99.90
24382;DHT22;12502;50.678;7.172;2023-07-02T13:43:53;21.10;99.90
24382;DHT22;12502;50.678;7.172;2023-07-02T13:48:54;21.10;99.90
24382;DHT22;12502;50.678;7.172;2023-07-02T13:53:56;21.70;99.90
24382;DHT22;12502;50.678;7.172;2023-07-02T13:58:59;21.90;99.90
24382;DHT22;12502;50.678;7.172;2023-07-02T14:04:01;21.40;99.90
24382;DHT22;12502;50.678;7.172;2023-07-02T14:09:03;21.30;99.90
24382;DHT22;12502;50.678;7.172;2023-07-02T14:14:05;21.40;99.90
24382;DHT22;12502;50.678;7.172;2023-07-02T14:19:07;21.70;99.90
24382;DHT22;12502;50.678;7.172;2023-07-02T14:24:08;22.00;99.90
24382;DHT22;12502;50.678;7.172;2023-07-02T14:29:10;22.20;99.90
24382;DHT22;12502;50.678;7.172;2023-07-02T14:34:12;22.00;98.00
24382;DHT22;12502;50.678;7.172;2023-07-02T14:39:13;22.10;97.90
24382;DHT22;12502;50.678;7.172;2023-07-02T14:44:15;22.70;97.50
24382;DHT22;12502;50.678;7.172;2023-07-02T14:49:16;22.50;96.30
24382;DHT22;12502;50.678;7.172;2023-07-02T14:54:18;22.70;97.10
24382;DHT22;12502;50.678;7.172;2023-07-02T14:59:20;22.20;94.90
24382;DHT22;12502;50.678;7.172;2023-07-02T15:04:22;22.60;96.30
24382;DHT22;12502;50.678;7.172;2023-07-02T15:09:24;22.30;96.70
24382;DHT22;12502;50.678;7.172;2023-07-02T15:14:25;22.20;95.70
24382;DHT22;12502;50.678;7.172;2023-07-02T15:19:27;22.10;96.30
24382;DHT22;12502;50.678;7.172;2023-07-02T15:24:29;22.60;97.10
24382;DHT22;12502;50.678;7.172;2023-07-02T15:29:30;22.50;96.20
24382;DHT22;12502;50.678;7.172;2023-07-02T15:34:32;22.60;95.40
24382;DHT22;12502;50.678;7.172;2023-07-02T15:39:34;22.60;95.30
24382;DHT22;12502;50.678;7.172;2023-07-02T15:44:36;22.60;95.20
24382;DHT22;12502;50.678;7.172;2023-07-02T15:49:38;22.60;95.00
24382;DHT22;12502;50.678;7.172;2023-07-02T15:54:39;22.10;95.40
24382;DHT22;12502;50.678;7.172;2023-07-02T15:59:41;22.80;94.90
24382;DHT22;12502;50.678;7.172;2023-07-02T16:04:43;22.70;94.50
24382;DHT22;12502;50.678;7.172;2023-07-02T16:09:47;22.30;93.30
24382;DHT22;12502;50.678;7.172;2023-07-02T16:14:49;22.20;95.60
24382;DHT22;12502;50.678;7.172;2023-07-02T16:19:51;22.40;95.10
24382;DHT22;12502;50.678;7.172;2023-07-02T16:24:52;22.10;96.00
24382;DHT22;12502;50.678;7.172;2023-07-02T16:29:54;22.20;96.40
24382;DHT22;12502;50.678;7.172;2023-07-02T16:34:57;22.40;95.80
24382;DHT22;12502;50.678;7.172;2023-07-02T16:39:59;22.20;96.40
24382;DHT22;12502;50.678;7.172;2023-07-02T16:45:01;22.30;95.30
24382;DHT22;12502;50.678;7.172;2023-07-02T16:50:07;22.20;96.10
24382;DHT22;12502;50.678;7.172;2023-07-02T16:55:09;21.90;96.30
24382;DHT22;12502;50.678;7.172;2023-07-02T17:00:11;21.90;97.80
24382;DHT22;12502;50.678;7.172;2023-07-02T17:05:13;21.90;96.10
24382;DHT22;12502;50.678;7.172;2023-07-02T17:10:14;21.90;96.10
24382;DHT22;12502;50.678;7.172;2023-07-02T17:15:16;22.10;97.20
24382;DHT22;12502;50.678;7.172;2023-07-02T17:20:18;22.20;96.30
24382;DHT22;12502;50.678;7.172;2023-07-02T17:25:19;21.90;96.90
24382;DHT22;12502;50.678;7.172;2023-07-02T17:30:21;21.70;96.90
24382;DHT22;12502;50.678;7.172;2023-07-02T17:35:23;21.60;97.10
24382;DHT22;12502;50.678;7.172;2023-07-02T17:40:24;21.60;97.90
24382;DHT22;12502;50.678;7.172;2023-07-02T17:45:26;21.70;97.60
24382;DHT22;12502;50.678;7.172;2023-07-02T17:50:27;21.60;98.40
24382;DHT22;12502;50.678;7.172;2023-07-02T17:55:29;21.50;98.10
24382;DHT22;12502;50.678;7.172;2023-07-02T18:00:31;21.50;98.20
24382;DHT22;12502;50.678;7.172;2023-07-02T18:05:32;21.40;98.20
24382;DHT22;12502;50.678;7.172;2023-07-02T18:10:34;21.30;99.90
24382;DHT22;12502;50.678;7.172;2023-07-02T18:15:36;21.30;99.80
24382;DHT22;12502;50.678;7.172;2023-07-02T18:20:37;21.30;99.10
24382;DHT22;12502;50.678;7.172;2023-07-02T18:25:39;21.30;99.80
24382;DHT22;12502;50.678;7.172;2023-07-02T18:30:44;21.20;99.90
24382;DHT22;12502;50.678;7.172;2023-07-02T18:35:47;21.00;99.90
24382;DHT22;12502;50.678;7.172;2023-07-02T18:40:59;20.90;99.90
24382;DHT22;12502;50.678;7.172;2023-07-02T18:46:03;20.90;99.90
24382;DHT22;12502;50.678;7.172;2023-07-02T18:51:06;20.90;99.90
24382;DHT22;12502;50.678;7.172;2023-07-02T18:56:07;20.90;99.90
24382;DHT22;12502;50.678;7.172;2023-07-02T19:01:10;20.80;99.90
24382;DHT22;12502;50.678;7.172;2023-07-02T19:06:13;20.80;99.90
24382;DHT22;12502;50.678;7.172;2023-07-02T19:11:15;20.70;99.90
24382;DHT22;12502;50.678;7.172;2023-07-02T19:16:16;20.60;99.90
24382;DHT22;12502;50.678;7.172;2023-07-02T19:21:18;20.50;99.90
24382;DHT22;12502;50.678;7.172;2023-07-02T19:26:22;20.40;99.90
24382;DHT22;12502;50.678;7.172;2023-07-02T19:31:24;20.40;99.90
24382;DHT22;12502;50.678;7.172;2023-07-02T19:36:25;20.40;99.90
24382;DHT22;12502;50.678;7.172;2023-07-02T19:41:27;20.30;99.90
24382;DHT22;12502;50.678;7.172;2023-07-02T19:46:29;20.30;99.90
24382;DHT22;12502;50.678;7.172;2023-07-02T19:51:31;20.20;99.90
24382;DHT22;12502;50.678;7.172;2023-07-02T19:56:33;20.20;99.90
24382;DHT22;12502;50.678;7.172;2023-07-02T20:01:34;20.10;99.90
24382;DHT22;12502;50.678;7.172;2023-07-02T20:06:36;20.20;99.90
24382;DHT22;12502;50.678;7.172;2023-07-02T20:11:38;20.20;99.90
24382;DHT22;12502;50.678;7.172;2023-07-02T20:16:40;20.10;99.90
24382;DHT22;12502;50.678;7.172;2023-07-02T20:21:41;19.90;99.90
24382;DHT22;12502;50.678;7.172;2023-07-02T20:26:45;19.70;99.90
24382;DHT22;12502;50.678;7.172;2023-07-02T20:31:46;19.80;99.90
24382;DHT22;12502;50.678;7.172;2023-07-02T20:36:56;19.60;99.90
24382;DHT22;12502;50.678;7.172;2023-07-02T20:42:00;19.60;99.90
24382;DHT22;12502;50.678;7.172;2023-07-02T20:47:02;19.70;99.90
24382;DHT22;12502;50.678;7.172;2023-07-02T20:52:04;19.50;99.90
24382;DHT22;12502;50.678;7.172;2023-07-02T20:57:08;19.50;99.90
24382;DHT22;12502;50.678;7.172;2023-07-02T21:02:10;19.30;99.90
24382;DHT22;12502;50.678;7.172;2023-07-02T21:07:11;19.20;99.90
24382;DHT22;12502;50.678;7.172;2023-07-02T21:12:13;19.30;99.90
24382;DHT22;12502;50.678;7.172;2023-07-02T21:17:15;19.20;99.90
24382;DHT22;12502;50.678;7.172;2023-07-02T21:22:17;19.20;99.90
24382;DHT22;12502;50.678;7.172;2023-07-02T21:27:18;19.30;99.90
24382;DHT22;12502;50.678;7.172;2023-07-02T21:32:20;19.20;99.90
24382;DHT22;12502;50.678;7.172;2023-07-02T21:37:22;19.30;99.90
24382;DHT22;12502;50.678;7.172;2023-07-02T21:42:23;19.20;99.90
24382;DHT22;12502;50.678;7.172;2023-07-02T21:47:25;19.20;99.90
24382;DHT22;12502;50.678;7.172;2023-07-02T21:52:30;19.10;99.90
24382;DHT22;12502;50.678;7.172;2023-07-02T21:57:33;19.10;99.90
24382;DHT22;12502;50.678;7.172;2023-07-02T22:02:35;18.90;99.90
24382;DHT22;12502;50.678;7.172;2023-07-02T22:07:36;18.80;99.90
24382;DHT22;12502;50.678;7.172;2023-07-02T22:12:38;18.80;99.90
24382;DHT22;12502;50.678;7.172;2023-07-02T22:17:40;18.70;99.90
24382;DHT22;12502;50.678;7.172;2023-07-02T22:22:42;18.60;99.90
24382;DHT22;12502;50.678;7.172;2023-07-02T22:27:44;18.40;99.90
24382;DHT22;12502;50.678;7.172;2023-07-02T22:32:45;18.20;99.90
24382;DHT22;12502;50.678;7.172;2023-07-02T22:37:47;18.20;99.90
24382;DHT22;12502;50.678;7.172;2023-07-02T22:42:49;17.80;99.90
24382;DHT22;12502;50.678;7.172;2023-07-02T22:47:51;17.70;99.90
24382;DHT22;12502;50.678;7.172;2023-07-02T22:52:53;17.60;99.90
24382;DHT22;12502;50.678;7.172;2023-07-02T22:57:54;17.60;99.90
24382;DHT22;12502;50.678;7.172;2023-07-02T23:02:56;17.30;99.90
24382;DHT22;12502;50.678;7.172;2023-07-02T23:07:58;17.20;99.90
24382;DHT22;12502;50.678;7.172;2023-07-02T23:12:59;17.10;99.90
24382;DHT22;12502;50.678;7.172;2023-07-02T23:18:01;17.00;99.90
24382;DHT22;12502;50.678;7.172;2023-07-02T23:23:03;16.90;99.90
24382;DHT22;12502;50.678;7.172;2023-07-02T23:28:06;16.80;99.90
24382;DHT22;12502;50.678;7.172;2023-07-02T23:33:08;16.80;99.90
24382;DHT22;12502;50.678;7.172;2023-07-02T23:38:11;16.80;99.90
24382;DHT22;12502;50.678;7.172;2023-07-02T23:43:13;16.70;99.90
24382;DHT22;12502;50.678;7.172;2023-07-02T23:48:15;16.80;99.90
24382;DHT22;12502;50.678;7.172;2023-07-02T23:53:16;16.80;99.90
24382;DHT22;12502;50.678;7.172;2023-07-02T23:58:18;16.80;99.90
